CheckWX is a tool to help pilots better visualize weather data.  It is not intended as a substitute for an official pre-flight weather briefing.

08:07:36 UTC

KGNR METAR
Greenville Airport
Maine, USA
Current

12 mins ago

KGNR 270756Z AUTO 11014G20KT 01/M03 A2984 RMK AO1 SLP118 T00061033
Observed
Feb-27 @ 07:56 UTC
Wind
  • 110° at 14 KTS
  • Gusting to 20 KTS
Visibility
Temperature
C / 34°F
Dewpoint
-3°C / 27°F
Humidity
75%
Altimeter
29.84" Hg
Pressure
1010.52 hPa
Previous

1 hour ago

KGNR 270656Z AUTO 10014G22KT 01/M04 A2988 RMK AO1 SLP132 T00111039
Observed
Feb-27 @ 06:56 UTC
Wind
  • 100° at 14 KTS
  • Gusting to 22 KTS
Visibility
Temperature
C / 34°F
Dewpoint
-4°C / 25°F
Humidity
70%
Altimeter
29.88" Hg
Pressure
1011.82 hPa
Previous

2 hours ago

KGNR 270556Z AUTO 12011KT 02/M04 A2989 RMK AO1 SLP136 T00221044 10028 20022 58021
Observed
Feb-27 @ 05:56 UTC
Wind
  • 120° at 11 KTS
Visibility
Temperature
C / 36°F
Dewpoint
-4°C / 25°F
Humidity
65%
Altimeter
29.89" Hg
Pressure
1012.22 hPa